Time;durP1;ratioP1;P1;durP2;ratioP2;P2;SDS_P1;SDS_P2;PMS_P1;PMS_P2;Temp;Humidity;BMP_temperature;BMP_pressure;BME280_temperature;BME280_humidity;BME280_pressure;Samples;Min_cycle;Max_cycle;Signal;HPM_P1;HPM_P2
2021/07/19 00:01:29;;;;;;;2.80;2.50;;;19.90;5.10;;;;;;5079904;28;20055;-72
2021/07/19 00:04:18;;;;;;;3.15;2.45;;;19.80;5.30;;;;;;5084367;28;20083;-71
2021/07/19 00:07:07;;;;;;;2.88;2.58;;;19.80;5.10;;;;;;5081927;28;20044;-72
2021/07/19 00:09:56;;;;;;;4.43;2.40;;;19.80;5.40;;;;;;5084638;28;20354;-72
2021/07/19 00:12:45;;;;;;;4.05;2.67;;;19.60;6.20;;;;;;5086364;28;20052;-71
2021/07/19 00:15:35;;;;;;;5.40;2.78;;;19.60;6.20;;;;;;5083631;28;20062;-72
2021/07/19 00:18:24;;;;;;;3.83;2.50;;;19.60;6.80;;;;;;5084179;28;20074;-72
2021/07/19 00:21:12;;;;;;;3.60;2.50;;;19.60;7.30;;;;;;5073880;28;20048;-72
2021/07/19 00:24:00;;;;;;;3.08;2.53;;;19.70;6.10;;;;;;5086389;28;20048;-70
2021/07/19 00:26:49;;;;;;;5.43;2.95;;;19.60;6.10;;;;;;5079790;28;20089;-71
2021/07/19 00:29:38;;;;;;;4.72;3.10;;;19.50;6.80;;;;;;5087756;28;20040;-71
2021/07/19 00:32:28;;;;;;;7.15;2.78;;;19.50;7.20;;;;;;5083033;28;20195;-71
2021/07/19 00:35:16;;;;;;;3.75;3.10;;;19.40;7.90;;;;;;5081975;28;20201;-71
2021/07/19 00:38:05;;;;;;;3.80;3.00;;;19.30;8.70;;;;;;5086977;28;20052;-71
2021/07/19 00:40:54;;;;;;;5.90;3.10;;;19.30;8.50;;;;;;5084353;28;20052;-71
2021/07/19 00:43:42;;;;;;;8.63;3.22;;;19.30;9.10;;;;;;5084890;28;20169;-72
2021/07/19 00:46:31;;;;;;;6.03;3.40;;;19.30;9.70;;;;;;5081626;28;20044;-71
2021/07/19 00:49:22;;;;;;;4.20;3.08;;;19.10;10.70;;;;;;5069584;28;20047;-72
2021/07/19 00:52:15;;;;;;;6.88;3.30;;;19.10;11.20;;;;;;5069353;28;20091;-71
2021/07/19 00:55:06;;;;;;;7.88;4.47;;;19.10;11.00;;;;;;5067708;28;20152;-70
2021/07/19 00:57:57;;;;;;;5.82;3.50;;;19.10;11.40;;;;;;5070009;28;20835;-71
2021/07/19 01:00:53;;;;;;;7.95;3.58;;;19.10;11.40;;;;;;5069744;28;20534;-71
2021/07/19 01:03:43;;;;;;;6.72;3.55;;;19.10;12.20;;;;;;5082349;28;20111;-71
2021/07/19 01:06:36;;;;;;;5.53;3.45;;;19.10;12.30;;;;;;5063347;28;20052;-70
2021/07/19 01:09:26;;;;;;;4.70;2.95;;;19.00;13.30;;;;;;5088292;28;20470;-71
2021/07/19 01:12:16;;;;;;;4.60;3.17;;;19.00;13.40;;;;;;5086488;28;20109;-71
2021/07/19 01:15:12;;;;;;;4.07;3.05;;;18.90;12.90;;;;;;5064362;28;20688;-71
2021/07/19 01:18:04;;;;;;;4.40;2.85;;;19.00;12.50;;;;;;5071688;28;20123;-71
2021/07/19 01:21:21;;;;;;;6.10;3.00;;;18.80;13.10;;;;;;5083435;28;20105;-70
2021/07/19 01:24:27;;;;;;;4.57;2.97;;;18.90;12.40;;;;;;5069721;28;21431;-72
2021/07/19 01:27:59;;;;;;;3.67;3.00;;;18.80;12.40;;;;;;5079311;28;20130;-72
2021/07/19 01:30:51;;;;;;;4.45;2.70;;;18.80;12.40;;;;;;5067513;28;20036;-70
2021/07/19 01:33:45;;;;;;;5.32;3.28;;;18.80;12.70;;;;;;5067314;28;20111;-70
2021/07/19 01:36:36;;;;;;;4.38;2.92;;;18.80;13.00;;;;;;5064546;28;20150;-70
2021/07/19 01:39:43;;;;;;;5.97;3.28;;;18.80;12.70;;;;;;5070461;28;20118;-71
2021/07/19 01:42:31;;;;;;;4.63;3.28;;;18.70;13.40;;;;;;5083477;28;20090;-71
2021/07/19 01:45:20;;;;;;;4.30;3.30;;;18.70;13.20;;;;;;5076817;28;20418;-71
2021/07/19 01:48:11;;;;;;;5.50;3.40;;;18.70;13.70;;;;;;5068851;28;20178;-71
2021/07/19 01:51:02;;;;;;;3.33;2.88;;;18.70;13.90;;;;;;5083602;28;20514;-71
2021/07/19 01:54:01;;;;;;;4.80;3.33;;;18.60;14.30;;;;;;5057094;28;20032;-71
2021/07/19 01:56:51;;;;;;;5.15;2.90;;;18.60;14.40;;;;;;5067124;28;20048;-72
2021/07/19 01:59:40;;;;;;;9.65;3.05;;;18.50;15.40;;;;;;5067309;28;20044;-72
2021/07/19 02:03:01;;;;;;;4.05;3.00;;;18.40;16.40;;;;;;5081086;28;20052;-71
2021/07/19 02:05:55;;;;;;;3.95;3.10;;;18.40;17.00;;;;;;5063409;28;20036;-71
2021/07/19 02:08:46;;;;;;;7.38;3.15;;;18.40;17.20;;;;;;5080969;28;20080;-70
2021/07/19 02:11:37;;;;;;;4.70;3.10;;;18.40;17.20;;;;;;5083238;28;20051;-71
2021/07/19 02:14:27;;;;;;;4.75;3.30;;;18.30;17.20;;;;;;5069347;28;20215;-71
2021/07/19 02:17:25;;;;;;;7.90;3.53;;;18.30;18.20;;;;;;5067584;28;20047;-71
2021/07/19 02:20:15;;;;;;;10.88;3.72;;;18.30;18.00;;;;;;5061733;28;20097;-71
2021/07/19 02:23:07;;;;;;;5.85;3.80;;;18.30;17.10;;;;;;5072016;28;20042;-71
2021/07/19 02:26:07;;;;;;;4.68;3.63;;;18.30;17.10;;;;;;5063428;28;20048;-70
2021/07/19 02:28:58;;;;;;;5.47;3.92;;;18.20;18.60;;;;;;5069245;28;20090;-71
2021/07/19 02:31:50;;;;;;;4.40;3.35;;;18.10;18.10;;;;;;5063783;28;20043;-70
2021/07/19 02:34:40;;;;;;;6.45;3.22;;;18.20;18.00;;;;;;5081555;28;20403;-71
2021/07/19 02:37:28;;;;;;;4.45;3.20;;;18.20;17.70;;;;;;5069370;28;20048;-71
2021/07/19 02:40:43;;;;;;;4.05;3.58;;;18.10;18.20;;;;;;5069448;28;20171;-71
2021/07/19 02:43:32;;;;;;;5.88;3.53;;;18.10;18.00;;;;;;5083320;28;20143;-71
2021/07/19 02:46:24;;;;;;;4.50;3.00;;;18.10;18.20;;;;;;5075752;28;20076;-71
2021/07/19 02:49:13;;;;;;;6.38;3.67;;;18.10;18.80;;;;;;5084668;28;20051;-71
2021/07/19 02:52:05;;;;;;;7.05;3.47;;;17.90;19.90;;;;;;5064237;28;20411;-71
2021/07/19 02:54:55;;;;;;;5.22;3.63;;;17.90;20.30;;;;;;5080555;28;20047;-71
2021/07/19 02:57:52;;;;;;;5.78;3.50;;;17.80;20.40;;;;;;5065221;28;20168;-72
2021/07/19 03:00:41;;;;;;;6.85;3.85;;;17.80;20.70;;;;;;5067526;28;20054;-71
2021/07/19 03:03:33;;;;;;;3.92;3.40;;;17.80;20.90;;;;;;5082867;28;20060;-71
2021/07/19 03:06:28;;;;;;;7.22;3.67;;;17.70;22.20;;;;;;5063584;28;20415;-72
2021/07/19 03:09:20;;;;;;;5.15;3.10;;;17.70;22.70;;;;;;5065837;28;20411;-71
2021/07/19 03:12:11;;;;;;;4.75;3.50;;;17.60;23.70;;;;;;5065857;28;20055;-71
2021/07/19 03:15:01;;;;;;;5.03;3.60;;;17.60;24.30;;;;;;5062925;28;20487;-71
2021/07/19 03:17:51;;;;;;;3.70;3.30;;;17.60;24.30;;;;;;5067992;28;20066;-71
2021/07/19 03:20:41;;;;;;;5.75;3.55;;;17.50;24.80;;;;;;5067075;28;20051;-71
2021/07/19 03:23:32;;;;;;;6.95;5.43;;;17.50;25.10;;;;;;5082129;28;20047;-72
2021/07/19 03:26:23;;;;;;;4.32;3.55;;;17.50;25.60;;;;;;5063937;28;20052;-71
2021/07/19 03:29:13;;;;;;;6.30;3.80;;;17.60;25.60;;;;;;5070835;28;20055;-72
2021/07/19 03:32:15;;;;;;;10.20;4.05;;;17.50;26.00;;;;;;5066692;28;20137;-72
2021/07/19 03:35:06;;;;;;;7.57;3.67;;;17.50;26.80;;;;;;5058728;28;20048;-72
2021/07/19 03:37:59;;;;;;;4.28;3.65;;;17.50;26.60;;;;;;5066510;28;20051;-70
2021/07/19 03:40:55;;;;;;;5.28;3.40;;;17.40;27.10;;;;;;5068489;28;20032;-72
2021/07/19 03:43:46;;;;;;;6.50;3.85;;;17.40;27.10;;;;;;5084271;28;20066;-71
2021/07/19 03:46:34;;;;;;;6.38;3.90;;;17.50;27.20;;;;;;5078897;28;20123;-71
2021/07/19 03:49:25;;;;;;;4.10;3.08;;;17.40;27.50;;;;;;5063614;28;20047;-72
2021/07/19 03:52:15;;;;;;;5.72;3.63;;;17.40;27.20;;;;;;5080255;28;20048;-71
2021/07/19 03:55:05;;;;;;;4.72;3.38;;;17.50;27.20;;;;;;5060856;28;20044;-71
2021/07/19 03:57:56;;;;;;;4.25;3.35;;;17.50;27.20;;;;;;5076767;28;20059;-70
2021/07/19 04:00:46;;;;;;;5.95;3.42;;;17.60;26.70;;;;;;5067839;28;20044;-72
2021/07/19 04:03:47;;;;;;;6.90;3.95;;;17.80;25.60;;;;;;5066645;28;20055;-72
2021/07/19 04:06:39;;;;;;;6.47;4.10;;;17.80;24.90;;;;;;5059475;28;20039;-71
2021/07/19 04:09:29;;;;;;;5.32;3.60;;;17.80;25.20;;;;;;5065296;28;20053;-72
2021/07/19 04:12:18;;;;;;;5.65;3.20;;;17.60;25.10;;;;;;5064602;28;20055;-72
2021/07/19 04:15:08;;;;;;;4.22;3.40;;;17.40;27.10;;;;;;5073171;28;21786;-72
2021/07/19 04:17:57;;;;;;;5.85;3.58;;;17.40;27.50;;;;;;5068055;28;20044;-72
2021/07/19 04:20:56;;;;;;;4.88;3.60;;;17.40;27.70;;;;;;5067791;28;20177;-71
2021/07/19 04:23:54;;;;;;;5.18;3.58;;;17.20;28.20;;;;;;5066568;28;20070;-72
2021/07/19 04:26:49;;;;;;;7.40;4.30;;;17.30;29.50;;;;;;5062890;28;20047;-72
2021/07/19 04:29:47;;;;;;;5.85;3.90;;;17.40;28.20;;;;;;5066242;28;20059;-72
2021/07/19 04:32:39;;;;;;;9.25;4.35;;;18.30;22.60;;;;;;5053478;28;20059;-71
2021/07/19 04:35:27;;;;;;;5.00;3.58;;;18.00;22.20;;;;;;5075162;28;20044;-71
2021/07/19 04:38:19;;;;;;;5.70;3.95;;;17.90;23.30;;;;;;5079972;28;20056;-71
2021/07/19 04:41:11;;;;;;;5.03;3.83;;;17.80;23.10;;;;;;5068438;28;20509;-71
2021/07/19 04:43:59;;;;;;;6.97;4.25;;;17.80;23.90;;;;;;5082885;28;20125;-72
2021/07/19 04:46:50;;;;;;;4.60;3.55;;;17.90;24.00;;;;;;5060807;28;20047;-72
2021/07/19 04:49:39;;;;;;;6.15;3.58;;;19.00;17.60;;;;;;5081284;28;20044;-72
2021/07/19 04:52:27;;;;;;;7.07;4.43;;;19.80;9.40;;;;;;5084886;28;20054;-72
2021/07/19 04:55:21;;;;;;;6.45;3.80;;;19.40;10.50;;;;;;5077579;28;20048;-71
2021/07/19 04:58:13;;;;;;;6.68;3.85;;;19.00;13.90;;;;;;5083364;28;20048;-71
2021/07/19 05:01:06;;;;;;;5.70;4.03;;;18.70;15.50;;;;;;5082427;28;20127;-71
2021/07/19 05:03:57;;;;;;;4.90;3.25;;;19.20;13.00;;;;;;5086490;28;20514;-71
2021/07/19 05:06:48;;;;;;;5.93;3.95;;;18.90;14.30;;;;;;5079791;28;21108;-72
2021/07/19 05:09:40;;;;;;;6.20;3.78;;;19.40;11.00;;;;;;5084232;28;20492;-72
2021/07/19 05:12:32;;;;;;;4.80;3.30;;;21.30;1.20;;;;;;5083981;28;20037;-72
2021/07/19 05:15:23;;;;;;;5.22;3.78;;;21.80;1.00;;;;;;5081262;28;20596;-73
2021/07/19 05:18:12;;;;;;;4.25;3.80;;;20.20;3.20;;;;;;5085367;28;20051;-73
2021/07/19 05:21:00;;;;;;;4.65;3.70;;;19.60;8.00;;;;;;5083173;28;20515;-73
2021/07/19 05:23:49;;;;;;;6.40;3.97;;;20.00;5.80;;;;;;5084550;28;20181;-70
2021/07/19 05:26:37;;;;;;;3.72;3.38;;;21.30;1.00;;;;;;5081772;28;20040;-70
2021/07/19 05:29:26;;;;;;;6.60;3.67;;;21.80;1.00;;;;;;5085192;28;20693;-70
2021/07/19 05:32:16;;;;;;;7.22;5.45;;;20.90;1.00;;;;;;5083932;28;20044;-70
2021/07/19 05:35:05;;;;;;;5.82;3.78;;;21.50;1.00;;;;;;5081289;28;20396;-69
2021/07/19 05:37:53;;;;;;;12.52;7.97;;;21.30;1.00;;;;;;5081335;28;20166;-69
2021/07/19 05:40:43;;;;;;;14.98;11.40;;;21.60;1.00;;;;;;5083734;28;20048;-71
2021/07/19 05:43:31;;;;;;;4.53;4.13;;;21.80;1.00;;;;;;5085061;28;20156;-70
2021/07/19 05:46:20;;;;;;;6.25;4.45;;;22.40;1.00;;;;;;5079720;28;20186;-72
2021/07/19 05:49:10;;;;;;;8.02;4.50;;;21.60;1.00;;;;;;5078164;28;20502;-70
2021/07/19 05:51:58;;;;;;;7.07;3.72;;;22.60;1.00;;;;;;5080321;28;20511;-69
2021/07/19 05:54:46;;;;;;;4.20;3.65;;;22.50;1.00;;;;;;5083084;28;20040;-70
2021/07/19 05:57:35;;;;;;;10.82;4.00;;;22.10;1.00;;;;;;5084218;28;20502;-70
2021/07/19 06:00:23;;;;;;;6.45;4.00;;;22.10;1.00;;;;;;5082192;28;20060;-70
2021/07/19 06:03:12;;;;;;;6.00;3.55;;;22.70;1.00;;;;;;5084592;28;20555;-70
2021/07/19 06:06:02;;;;;;;5.50;3.55;;;22.90;1.00;;;;;;5078377;28;20100;-69
2021/07/19 06:08:50;;;;;;;7.70;3.75;;;21.70;1.00;;;;;;5086518;28;20069;-70
2021/07/19 06:11:39;;;;;;;5.28;3.72;;;21.10;1.00;;;;;;5086876;28;20043;-71
2021/07/19 06:14:28;;;;;;;5.15;3.53;;;22.60;1.00;;;;;;5083525;28;20048;-69
2021/07/19 06:17:16;;;;;;;5.18;3.78;;;22.20;1.00;;;;;;5080888;28;20101;-69
2021/07/19 06:20:11;;;;;;;6.15;3.70;;;21.90;1.00;;;;;;5080238;28;20036;-70
2021/07/19 06:23:02;;;;;;;5.50;4.28;;;22.60;1.00;;;;;;5084928;28;20419;-70
2021/07/19 06:25:52;;;;;;;5.45;3.95;;;22.20;1.00;;;;;;5078665;28;20570;-69
2021/07/19 06:28:41;;;;;;;4.57;3.40;;;22.30;1.00;;;;;;5084339;28;20204;-69
2021/07/19 06:31:29;;;;;;;5.53;3.90;;;22.10;1.00;;;;;;5083230;28;20066;-69
2021/07/19 06:34:18;;;;;;;8.10;3.92;;;22.30;1.00;;;;;;5080394;28;20490;-71
2021/07/19 06:37:06;;;;;;;5.78;3.72;;;23.00;1.00;;;;;;5080181;28;20052;-69
2021/07/19 06:39:57;;;;;;;4.95;3.30;;;22.10;1.00;;;;;;5085238;28;20055;-69
2021/07/19 06:42:46;;;;;;;6.05;3.45;;;22.90;1.00;;;;;;5068474;28;20578;-69
2021/07/19 06:45:34;;;;;;;4.70;3.60;;;23.00;1.00;;;;;;5075589;28;20052;-69
2021/07/19 06:48:23;;;;;;;4.93;3.83;;;22.70;1.00;;;;;;5080905;28;20043;-69
2021/07/19 06:51:11;;;;;;;5.75;3.78;;;22.40;1.00;;;;;;5082721;28;20058;-70
2021/07/19 06:54:00;;;;;;;5.03;3.35;;;22.10;1.00;;;;;;5082323;28;20050;-70
2021/07/19 06:56:50;;;;;;;6.45;3.70;;;21.60;1.00;;;;;;5079340;28;20571;-69
2021/07/19 06:59:38;;;;;;;5.22;3.67;;;21.60;1.00;;;;;;5082504;28;20119;-69
2021/07/19 07:02:26;;;;;;;5.05;3.63;;;21.70;1.00;;;;;;5084046;28;20747;-70
2021/07/19 07:05:16;;;;;;;4.40;3.10;;;21.40;1.00;;;;;;5078080;28;20056;-68
2021/07/19 07:08:05;;;;;;;7.28;3.78;;;21.90;1.00;;;;;;5081945;28;20487;-69
2021/07/19 07:10:53;;;;;;;5.40;4.22;;;21.60;1.00;;;;;;5081446;28;20052;-69
2021/07/19 07:13:43;;;;;;;4.72;3.53;;;21.60;1.00;;;;;;5084709;28;20043;-69
2021/07/19 07:16:32;;;;;;;4.15;3.67;;;21.50;1.00;;;;;;5064054;28;20491;-68
2021/07/19 07:19:21;;;;;;;6.85;4.32;;;22.20;1.00;;;;;;5082991;28;20036;-68
2021/07/19 07:22:09;;;;;;;6.57;3.50;;;22.10;1.00;;;;;;5078068;28;20422;-71
2021/07/19 07:24:58;;;;;;;5.65;4.03;;;22.20;1.00;;;;;;5068108;28;20131;-69
2021/07/19 07:27:46;;;;;;;7.22;3.80;;;22.00;1.00;;;;;;5067707;28;20044;-70
2021/07/19 07:30:36;;;;;;;4.50;3.47;;;22.00;1.00;;;;;;5083590;28;20065;-68
2021/07/19 07:33:25;;;;;;;4.43;3.25;;;22.30;1.00;;;;;;5082120;28;20077;-70
2021/07/19 07:36:13;;;;;;;4.85;4.13;;;22.50;1.00;;;;;;5077648;28;20721;-70
2021/07/19 07:39:02;;;;;;;4.20;3.30;;;22.50;1.00;;;;;;5084281;28;20044;-69
2021/07/19 07:41:51;;;;;;;12.38;3.33;;;22.90;1.00;;;;;;5082697;28;20052;-68
2021/07/19 07:44:39;;;;;;;7.20;3.80;;;22.80;1.00;;;;;;5079691;28;20051;-69
2021/07/19 07:47:29;;;;;;;4.95;3.30;;;22.60;1.00;;;;;;5066851;28;20095;-69
2021/07/19 07:50:17;;;;;;;6.18;3.47;;;23.30;1.00;;;;;;5084546;28;20086;-68
2021/07/19 07:53:06;;;;;;;7.20;3.65;;;22.90;1.00;;;;;;5083002;28;20048;-69
2021/07/19 07:55:57;;;;;;;4.53;3.13;;;23.20;1.00;;;;;;5075937;28;20133;-69
2021/07/19 07:58:46;;;;;;;4.57;3.45;;;23.50;1.00;;;;;;5081836;28;20115;-70
2021/07/19 08:01:34;;;;;;;6.22;3.45;;;23.30;1.00;;;;;;5081214;28;20040;-69
2021/07/19 08:04:24;;;;;;;5.13;3.58;;;23.30;1.00;;;;;;5080210;28;20051;-69
2021/07/19 08:07:16;;;;;;;6.15;3.60;;;23.20;1.00;;;;;;5079306;28;20040;-70
2021/07/19 08:10:06;;;;;;;4.82;3.55;;;23.70;1.00;;;;;;5080988;28;20184;-69
2021/07/19 08:12:55;;;;;;;5.20;3.10;;;24.00;1.00;;;;;;5080091;28;20059;-68
2021/07/19 08:15:47;;;;;;;9.70;3.58;;;24.20;1.00;;;;;;5062953;28;20166;-68
2021/07/19 08:18:35;;;;;;;5.00;3.33;;;23.40;1.00;;;;;;5084282;28;20123;-69
2021/07/19 08:21:25;;;;;;;7.22;3.40;;;24.00;1.00;;;;;;5082309;28;20112;-69
2021/07/19 08:24:15;;;;;;;5.75;3.75;;;23.80;1.00;;;;;;5079521;28;20427;-70
2021/07/19 08:27:04;;;;;;;6.38;3.72;;;24.00;1.00;;;;;;5081085;28;20178;-69
2021/07/19 08:29:52;;;;;;;5.63;3.92;;;23.70;1.00;;;;;;5085260;28;20117;-68
2021/07/19 08:32:41;;;;;;;7.45;3.50;;;24.00;1.00;;;;;;5086089;28;20044;-69
2021/07/19 08:35:30;;;;;;;4.65;3.67;;;24.10;1.00;;;;;;5080393;28;20054;-69
2021/07/19 08:38:20;;;;;;;7.75;3.65;;;24.10;1.00;;;;;;5086137;28;20102;-68
2021/07/19 08:41:08;;;;;;;6.28;3.80;;;24.20;1.00;;;;;;5084566;28;20205;-69
2021/07/19 08:44:04;;;;;;;5.25;3.83;;;24.40;1.00;;;;;;5084994;28;20147;-69
2021/07/19 08:46:52;;;;;;;6.80;4.13;;;24.00;1.00;;;;;;5077419;28;20056;-69
2021/07/19 08:49:42;;;;;;;8.88;4.88;;;23.50;1.00;;;;;;5086748;28;20076;-69
2021/07/19 08:52:31;;;;;;;8.27;3.30;;;23.50;1.00;;;;;;5084993;28;20055;-68
2021/07/19 08:55:21;;;;;;;6.45;3.58;;;24.10;1.00;;;;;;5079158;28;21000;-68
2021/07/19 08:58:14;;;;;;;8.73;3.95;;;23.80;1.00;;;;;;5081069;28;20115;-69
2021/07/19 09:01:03;;;;;;;5.93;3.47;;;23.80;1.00;;;;;;5085007;28;20119;-68
2021/07/19 09:03:52;;;;;;;5.00;3.88;;;23.70;1.00;;;;;;5085539;28;20036;-69
2021/07/19 09:06:40;;;;;;;5.97;4.03;;;24.10;1.00;;;;;;5081259;28;20054;-69
2021/07/19 09:09:30;;;;;;;5.53;3.40;;;24.20;1.00;;;;;;5083244;28;20115;-68
2021/07/19 09:12:31;;;;;;;7.70;3.75;;;24.00;1.00;;;;;;5086443;28;20169;-67
2021/07/19 09:15:30;;;;;;;6.60;3.88;;;24.20;1.00;;;;;;5082159;28;20128;-68
2021/07/19 09:18:23;;;;;;;6.22;3.70;;;24.40;1.00;;;;;;5081478;28;20546;-69
2021/07/19 09:21:29;;;;;;;4.85;3.72;;;24.90;1.00;;;;;;5085601;28;20056;-69
2021/07/19 09:24:20;;;;;;;5.07;3.47;;;25.00;1.00;;;;;;5084598;28;20119;-68
2021/07/19 09:27:08;;;;;;;5.07;3.20;;;25.20;1.00;;;;;;5079478;28;20123;-69
2021/07/19 09:29:58;;;;;;;4.30;3.45;;;25.60;1.00;;;;;;5084045;28;20044;-69
2021/07/19 09:32:55;;;;;;;4.47;3.72;;;25.10;1.00;;;;;;5077683;28;20044;-69
2021/07/19 09:35:48;;;;;;;6.13;3.60;;;24.60;1.00;;;;;;5077350;28;20127;-69
2021/07/19 09:38:37;;;;;;;4.70;3.15;;;25.20;1.00;;;;;;5071995;28;20044;-70
2021/07/19 09:41:25;;;;;;;6.25;3.85;;;25.20;1.00;;;;;;5084965;28;20056;-69
2021/07/19 09:44:14;;;;;;;5.70;4.05;;;25.30;1.00;;;;;;5083259;28;20193;-69
2021/07/19 09:47:06;;;;;;;4.10;3.50;;;25.80;1.00;;;;;;5079577;28;20642;-68
2021/07/19 09:49:55;;;;;;;5.50;3.60;;;25.50;1.00;;;;;;5082172;28;20509;-69
2021/07/19 09:52:44;;;;;;;4.20;3.30;;;24.80;1.00;;;;;;5087789;28;20056;-69
2021/07/19 09:55:33;;;;;;;5.68;3.58;;;24.50;1.00;;;;;;5079985;28;20056;-69
2021/07/19 09:58:22;;;;;;;5.03;3.00;;;24.70;1.00;;;;;;5083408;28;20046;-68
2021/07/19 10:01:11;;;;;;;4.68;3.33;;;25.10;1.00;;;;;;5083191;28;20051;-70
2021/07/19 10:04:09;;;;;;;8.13;3.10;;;25.40;1.00;;;;;;5083074;28;20048;-70
2021/07/19 10:07:00;;;;;;;4.80;2.90;;;25.10;1.00;;;;;;5079786;28;20411;-70
2021/07/19 10:09:49;;;;;;;4.68;3.03;;;25.10;1.00;;;;;;5083000;28;20040;-71
2021/07/19 10:12:38;;;;;;;5.13;2.88;;;24.90;1.00;;;;;;5083184;28;20434;-70
2021/07/19 10:15:26;;;;;;;3.47;2.55;;;24.70;1.00;;;;;;5078064;28;20052;-69
2021/07/19 10:18:17;;;;;;;4.25;3.05;;;25.00;1.00;;;;;;5085229;28;20056;-69
2021/07/19 10:21:07;;;;;;;5.40;3.05;;;25.50;1.00;;;;;;5085054;28;20037;-70
2021/07/19 10:23:59;;;;;;;5.75;3.28;;;25.70;1.00;;;;;;5085246;28;20149;-69
2021/07/19 10:26:48;;;;;;;3.67;2.50;;;25.40;1.00;;;;;;5079369;28;20052;-70
2021/07/19 10:29:37;;;;;;;10.43;2.88;;;26.20;1.00;;;;;;5081925;28;20135;-69
2021/07/19 10:32:26;;;;;;;5.30;3.00;;;25.80;1.00;;;;;;5065862;28;20554;-69
2021/07/19 10:35:16;;;;;;;3.85;2.88;;;25.80;1.00;;;;;;5078589;28;20058;-70
2021/07/19 10:38:11;;;;;;;4.82;2.55;;;26.20;1.00;;;;;;5084404;28;20114;-69
2021/07/19 10:41:01;;;;;;;5.10;2.75;;;26.00;1.00;;;;;;5071307;28;20453;-69
2021/07/19 10:44:02;;;;;;;3.83;3.03;;;26.50;1.00;;;;;;5077635;28;20181;-69
2021/07/19 10:46:51;;;;;;;4.60;2.60;;;26.50;1.00;;;;;;5079097;28;20047;-69
2021/07/19 10:49:43;;;;;;;3.60;2.65;;;26.20;1.00;;;;;;5084185;28;20502;-68
2021/07/19 10:52:33;;;;;;;5.80;3.00;;;26.10;1.00;;;;;;5080802;28;20163;-71
2021/07/19 10:55:28;;;;;;;3.80;2.53;;;26.30;1.00;;;;;;5077246;28;20508;-70
2021/07/19 10:58:18;;;;;;;4.63;2.75;;;26.60;1.00;;;;;;5055284;28;20549;-69
2021/07/19 11:01:20;;;;;;;2.85;2.50;;;26.70;1.00;;;;;;5079086;28;20089;-70
2021/07/19 11:04:15;;;;;;;3.85;2.70;;;26.80;1.00;;;;;;5080060;28;20079;-69
2021/07/19 11:07:12;;;;;;;3.72;2.80;;;26.70;1.00;;;;;;5078740;28;20123;-69
2021/07/19 11:10:00;;;;;;;4.72;2.58;;;25.80;1.00;;;;;;5082612;28;20032;-69
2021/07/19 11:12:52;;;;;;;4.57;2.65;;;26.00;1.00;;;;;;5081803;28;20503;-69
2021/07/19 11:15:42;;;;;;;2.88;2.58;;;26.30;1.00;;;;;;5077276;28;20044;-70
2021/07/19 11:18:32;;;;;;;4.00;2.10;;;26.70;1.00;;;;;;5070374;28;20039;-69
2021/07/19 11:21:24;;;;;;;2.90;2.00;;;26.70;1.00;;;;;;5068875;28;20561;-70
2021/07/19 11:24:17;;;;;;;5.90;2.28;;;26.70;1.00;;;;;;5078316;28;20036;-69
2021/07/19 11:27:07;;;;;;;2.55;2.15;;;27.20;1.00;;;;;;5078681;28;20059;-69
2021/07/19 11:30:02;;;;;;;3.58;2.35;;;26.70;1.00;;;;;;5069014;28;21509;-69
2021/07/19 11:32:53;;;;;;;4.30;2.15;;;27.00;1.00;;;;;;5080753;28;20055;-69
2021/07/19 11:35:42;;;;;;;6.82;2.58;;;27.30;1.00;;;;;;5076645;28;20040;-70
2021/07/19 11:38:38;;;;;;;3.83;2.05;;;27.00;1.00;;;;;;5083287;28;20511;-70
2021/07/19 11:41:32;;;;;;;5.70;1.92;;;27.00;1.00;;;;;;5082956;28;20036;-71
2021/07/19 11:44:21;;;;;;;4.20;2.30;;;27.10;1.00;;;;;;5080698;28;20411;-70
2021/07/19 11:47:11;;;;;;;5.05;2.20;;;26.90;1.00;;;;;;5064930;28;20048;-70
2021/07/19 11:50:02;;;;;;;2.90;2.08;;;27.10;1.00;;;;;;5068047;28;20425;-70
2021/07/19 11:52:54;;;;;;;3.92;2.10;;;27.60;1.00;;;;;;5081017;28;20048;-70
2021/07/19 11:55:43;;;;;;;5.80;2.30;;;27.30;1.00;;;;;;5075205;28;20044;-70
2021/07/19 11:58:32;;;;;;;5.32;2.47;;;26.90;1.00;;;;;;5084736;28;20515;-70
2021/07/19 12:01:28;;;;;;;4.15;2.30;;;26.80;1.00;;;;;;5083838;28;20055;-71
2021/07/19 12:04:19;;;;;;;5.07;2.33;;;27.00;1.00;;;;;;5083889;28;20189;-70
2021/07/19 12:07:11;;;;;;;3.33;2.30;;;27.20;1.00;;;;;;5083142;28;20101;-70
2021/07/19 12:10:00;;;;;;;5.03;2.28;;;27.30;1.00;;;;;;5087386;28;20036;-70
2021/07/19 12:12:49;;;;;;;4.63;2.05;;;27.20;1.00;;;;;;5084910;28;20056;-71
2021/07/19 12:15:38;;;;;;;5.85;2.30;;;27.50;1.00;;;;;;5078452;28;20085;-69
2021/07/19 12:18:31;;;;;;;5.97;2.15;;;26.90;1.00;;;;;;5085881;28;20051;-71
2021/07/19 12:21:23;;;;;;;3.65;2.38;;;26.50;1.00;;;;;;5086158;28;20508;-70
2021/07/19 12:24:14;;;;;;;5.82;2.50;;;26.50;1.00;;;;;;5086176;28;20166;-71
2021/07/19 12:27:02;;;;;;;3.55;2.50;;;26.60;1.00;;;;;;5081952;28;20036;-69
2021/07/19 12:29:52;;;;;;;4.68;2.45;;;26.90;1.00;;;;;;5082927;28;20459;-70
2021/07/19 12:32:41;;;;;;;8.63;2.42;;;27.40;1.00;;;;;;5086468;28;20391;-70
2021/07/19 12:35:31;;;;;;;3.05;1.85;;;27.20;1.00;;;;;;5082229;28;20048;-70
2021/07/19 12:38:21;;;;;;;2.15;1.90;;;27.10;1.00;;;;;;5083039;28;20064;-70
2021/07/19 12:41:11;;;;;;;4.40;2.05;;;27.10;1.00;;;;;;5084136;28;20048;-69
2021/07/19 12:44:02;;;;;;;4.50;2.15;;;27.60;1.00;;;;;;5086075;28;20052;-70
2021/07/19 12:46:52;;;;;;;6.13;2.42;;;28.00;1.00;;;;;;5080561;28;20089;-71
2021/07/19 12:49:42;;;;;;;8.07;2.75;;;28.40;1.00;;;;;;5068168;28;20398;-70
2021/07/19 12:52:32;;;;;;;3.35;2.13;;;28.30;1.00;;;;;;5082326;28;20047;-71
2021/07/19 12:55:38;;;;;;;8.27;2.40;;;27.80;1.00;;;;;;5081303;28;20146;-69
2021/07/19 12:58:31;;;;;;;2.30;2.08;;;27.70;1.00;;;;;;5085147;28;20121;-70
2021/07/19 13:01:20;;;;;;;5.90;2.45;;;27.90;1.00;;;;;;5082696;28;20064;-70
2021/07/19 13:04:10;;;;;;;3.22;2.30;;;28.20;1.00;;;;;;5084603;28;20044;-70
2021/07/19 13:06:59;;;;;;;3.65;2.20;;;27.60;1.00;;;;;;5080558;28;20044;-69
2021/07/19 13:09:55;;;;;;;3.70;2.33;;;27.60;1.00;;;;;;5085550;28;20509;-70
2021/07/19 13:12:51;;;;;;;3.97;2.10;;;28.00;1.00;;;;;;5083079;28;20526;-70
2021/07/19 13:15:39;;;;;;;4.03;2.10;;;27.50;1.00;;;;;;5080258;28;20051;-71
2021/07/19 13:18:28;;;;;;;3.00;2.10;;;27.00;1.00;;;;;;5085989;28;20044;-68
2021/07/19 13:21:22;;;;;;;4.25;2.35;;;27.30;1.00;;;;;;5081828;28;20451;-69
2021/07/19 13:24:15;;;;;;;3.70;2.33;;;27.20;1.00;;;;;;5065018;28;20036;-70
2021/07/19 13:27:04;;;;;;;3.15;2.22;;;26.90;1.00;;;;;;5079412;28;20047;-69
2021/07/19 13:29:57;;;;;;;5.80;2.42;;;26.60;1.00;;;;;;5069490;28;20124;-70
2021/07/19 13:32:46;;;;;;;3.42;2.50;;;27.00;1.00;;;;;;5082700;28;20231;-70
2021/07/19 13:35:39;;;;;;;5.93;2.10;;;27.20;1.00;;;;;;5075637;28;20207;-71
2021/07/19 13:38:38;;;;;;;2.78;2.20;;;27.10;1.00;;;;;;5081478;28;20128;-71
2021/07/19 13:41:27;;;;;;;3.95;2.20;;;27.30;1.00;;;;;;5067870;28;20051;-70
2021/07/19 13:44:16;;;;;;;4.32;2.20;;;27.30;1.00;;;;;;5081267;28;20197;-70
2021/07/19 13:47:19;;;;;;;3.28;2.53;;;27.00;1.00;;;;;;5062020;28;20045;-69
2021/07/19 13:50:09;;;;;;;2.63;2.33;;;27.90;1.00;;;;;;5082551;28;20055;-71
2021/07/19 13:52:57;;;;;;;5.78;2.65;;;27.80;1.00;;;;;;5069278;28;20040;-71
2021/07/19 13:55:55;;;;;;;7.07;2.63;;;27.40;1.00;;;;;;5062796;28;20407;-69
2021/07/19 13:58:44;;;;;;;4.97;2.53;;;27.70;1.00;;;;;;5085674;28;20151;-70
2021/07/19 14:01:35;;;;;;;6.60;2.50;;;26.90;1.00;;;;;;5080761;28;20392;-70
2021/07/19 14:04:37;;;;;;;3.83;2.45;;;27.00;1.00;;;;;;5081736;28;20170;-71
2021/07/19 14:07:26;;;;;;;4.07;2.33;;;27.10;1.00;;;;;;5082848;28;20435;-70
2021/07/19 14:10:15;;;;;;;3.85;2.30;;;26.90;1.00;;;;;;5082069;28;20055;-69
2021/07/19 14:13:04;;;;;;;3.35;2.75;;;26.90;1.00;;;;;;5065918;28;20036;-71
2021/07/19 14:15:53;;;;;;;9.35;3.10;;;26.70;1.00;;;;;;5078690;28;20517;-71
2021/07/19 14:18:41;;;;;;;8.30;2.88;;;27.00;1.00;;;;;;5080766;28;20072;-71
2021/07/19 14:21:32;;;;;;;3.90;2.80;;;27.00;1.00;;;;;;5084657;28;20627;-70
2021/07/19 14:24:23;;;;;;;8.15;3.13;;;26.70;1.00;;;;;;5086192;28;21379;-70
2021/07/19 14:27:13;;;;;;;5.53;2.92;;;26.60;1.00;;;;;;5077892;28;20822;-70
2021/07/19 14:30:07;;;;;;;6.72;2.75;;;27.00;1.00;;;;;;5083668;28;20082;-71
2021/07/19 14:32:56;;;;;;;8.23;2.60;;;27.20;1.00;;;;;;5081673;28;20044;-70
2021/07/19 14:35:45;;;;;;;6.60;2.80;;;26.80;1.00;;;;;;5078586;28;20070;-70
2021/07/19 14:38:35;;;;;;;4.00;2.30;;;27.20;1.00;;;;;;5083979;28;20048;-70
2021/07/19 14:41:23;;;;;;;4.40;2.60;;;27.50;1.00;;;;;;5081373;28;20131;-70
2021/07/19 14:44:12;;;;;;;7.57;2.47;;;27.40;1.00;;;;;;5081208;28;20096;-71
2021/07/19 14:47:00;;;;;;;3.33;2.60;;;26.80;1.00;;;;;;5077324;28;20636;-71
2021/07/19 14:50:10;;;;;;;3.47;2.50;;;26.60;1.00;;;;;;5079706;28;20032;-70
2021/07/19 14:52:58;;;;;;;3.90;2.53;;;26.60;1.00;;;;;;5079125;28;20059;-70
2021/07/19 14:55:48;;;;;;;5.78;2.88;;;26.30;1.00;;;;;;5074356;28;20194;-71
2021/07/19 14:58:36;;;;;;;3.88;2.67;;;26.30;1.00;;;;;;5082662;28;20149;-71